TVP7273 LTFE-EPKT
Flight info
| Callsign | TVP7273 |
|---|---|
| Flight time | N/A |
| Altitude | 28000 |
| Route | AKBUK N128 IMR/N0460F360 UN128 PEREN UN133 ATFIR N133 LOMOS DCT BUDOP DCT KEKED DCT LENOV |
| Aircraft | B738/M-SDE3FGHIJ1RWXY/LB1 |
Departure
| Time | 2026-05-01 12:44 |
|---|---|
| Airport | Milas Bodrum International Airport (LTFE) |
Arrival
| Time | N/A |
|---|---|
| Airport | Katowice Wojciech Korfanty International Airport (EPKT) |
| Time | Latitude | Longitude | Altitude | Speed | Heading |
|---|---|---|---|---|---|
| 2026-05-01 12:10 | 37.24703 | 27.66480 | 18 ft | 0 kts | 217° |
| 2026-05-01 12:34 | 37.24707 | 27.66484 | 18 ft | 4 kts | 217° |
| 2026-05-01 12:34 | 37.24729 | 27.66502 | 20 ft | 4 kts | 206° |
| 2026-05-01 12:35 | 37.24754 | 27.66513 | 18 ft | 4 kts | 184° |
| 2026-05-01 12:35 | 37.24777 | 27.66508 | 21 ft | 4 kts | 128° |
| 2026-05-01 12:35 | 37.24782 | 27.66499 | 19 ft | 0 kts | 120° |
| 2026-05-01 12:38 | 37.24773 | 27.66518 | 21 ft | 5 kts | 120° |
| 2026-05-01 12:38 | 37.24759 | 27.66558 | 18 ft | 5 kts | 108° |
| 2026-05-01 12:38 | 37.24750 | 27.66599 | 18 ft | 5 kts | 106° |
| 2026-05-01 12:38 | 37.24739 | 27.66643 | 19 ft | 6 kts | 107° |
| 2026-05-01 12:39 | 37.24728 | 27.66690 | 19 ft | 6 kts | 107° |
| 2026-05-01 12:39 | 37.24717 | 27.66736 | 20 ft | 5 kts | 107° |
| 2026-05-01 12:39 | 37.24706 | 27.66781 | 21 ft | 5 kts | 107° |
| 2026-05-01 12:39 | 37.24695 | 27.66826 | 19 ft | 5 kts | 107° |
| 2026-05-01 12:40 | 37.24682 | 27.66875 | 20 ft | 6 kts | 107° |
| 2026-05-01 12:40 | 37.24668 | 27.66932 | 21 ft | 7 kts | 107° |
| 2026-05-01 12:40 | 37.24652 | 27.66997 | 20 ft | 8 kts | 106° |
| 2026-05-01 12:40 | 37.24635 | 27.67072 | 20 ft | 10 kts | 105° |
| 2026-05-01 12:41 | 37.24615 | 27.67166 | 21 ft | 12 kts | 107° |
| 2026-05-01 12:41 | 37.24586 | 27.67282 | 22 ft | 15 kts | 107° |
| 2026-05-01 12:41 | 37.24553 | 27.67422 | 22 ft | 18 kts | 107° |
| 2026-05-01 12:41 | 37.24514 | 27.67582 | 23 ft | 20 kts | 106° |
| 2026-05-01 12:42 | 37.24473 | 27.67763 | 27 ft | 23 kts | 106° |
| 2026-05-01 12:42 | 37.24430 | 27.67941 | 28 ft | 18 kts | 109° |
| 2026-05-01 12:42 | 37.24435 | 27.68020 | 27 ft | 10 kts | 46° |
| 2026-05-01 12:42 | 37.24504 | 27.68067 | 24 ft | 13 kts | 19° |
| 2026-05-01 12:43 | 37.24601 | 27.68103 | 24 ft | 16 kts | 17° |
| 2026-05-01 12:43 | 37.24716 | 27.68119 | 24 ft | 18 kts | 332° |
| 2026-05-01 12:43 | 37.24764 | 27.67979 | 25 ft | 23 kts | 287° |
| 2026-05-01 12:43 | 37.24889 | 27.67445 | 24 ft | 105 kts | 287° |
| 2026-05-01 12:44 | 37.25184 | 27.66268 | 50 ft | 172 kts | 285° |
| 2026-05-01 12:44 | 37.25567 | 27.64795 | 912 ft | 179 kts | 285° |
| 2026-05-01 12:44 | 37.26206 | 27.61361 | 1903 ft | 225 kts | 282° |
| 2026-05-01 12:45 | 37.27064 | 27.57325 | 3067 ft | 253 kts | 296° |
| 2026-05-01 12:45 | 37.28285 | 27.55743 | 3853 ft | 260 kts | 332° |
| 2026-05-01 12:45 | 37.29950 | 27.54914 | 4705 ft | 262 kts | 337° |
| 2026-05-01 12:46 | 37.31669 | 27.54112 | 5505 ft | 266 kts | 338° |
| 2026-05-01 12:46 | 37.33390 | 27.53302 | 6479 ft | 263 kts | 337° |
| 2026-05-01 12:46 | 37.35117 | 27.52476 | 7265 ft | 268 kts | 336° |
| 2026-05-01 12:46 | 37.36874 | 27.51623 | 8035 ft | 273 kts | 335° |
| 2026-05-01 12:47 | 37.38653 | 27.50750 | 8861 ft | 276 kts | 335° |
| 2026-05-01 12:47 | 37.40451 | 27.49861 | 9727 ft | 279 kts | 334° |
| 2026-05-01 12:47 | 37.42269 | 27.48957 | 10410 ft | 286 kts | 334° |
| 2026-05-01 12:47 | 37.44188 | 27.47994 | 10618 ft | 309 kts | 334° |
| 2026-05-01 12:48 | 37.46227 | 27.46968 | 10813 ft | 331 kts | 334° |
| 2026-05-01 12:48 | 37.48436 | 27.45860 | 11088 ft | 351 kts | 334° |
| 2026-05-01 12:48 | 37.50735 | 27.44709 | 11641 ft | 359 kts | 334° |
| 2026-05-01 12:48 | 37.53068 | 27.43541 | 12331 ft | 362 kts | 334° |
| 2026-05-01 12:49 | 37.55420 | 27.42369 | 13074 ft | 364 kts | 334° |
| 2026-05-01 12:49 | 37.57775 | 27.41183 | 13847 ft | 366 kts | 333° |
| 2026-05-01 12:49 | 37.60156 | 27.39983 | 14448 ft | 370 kts | 333° |
| 2026-05-01 12:49 | 37.62559 | 27.38771 | 15050 ft | 374 kts | 333° |
| 2026-05-01 12:50 | 37.64976 | 27.37514 | 15662 ft | 377 kts | 332° |
| 2026-05-01 12:50 | 37.67394 | 27.36200 | 16260 ft | 380 kts | 331° |
| 2026-05-01 12:50 | 37.69798 | 27.34874 | 16854 ft | 384 kts | 330° |
| 2026-05-01 12:50 | 37.72253 | 27.33518 | 17434 ft | 387 kts | 330° |
| 2026-05-01 12:51 | 37.74736 | 27.32147 | 18026 ft | 391 kts | 330° |
| 2026-05-01 12:51 | 37.77243 | 27.30767 | 18568 ft | 395 kts | 330° |
| 2026-05-01 12:51 | 37.82312 | 27.27984 | 19666 ft | 399 kts | 330° |
| 2026-05-01 12:52 | 37.84867 | 27.26582 | 20173 ft | 402 kts | 330° |
| 2026-05-01 12:52 | 37.90026 | 27.23748 | 21183 ft | 406 kts | 330° |
| 2026-05-01 12:52 | 37.92592 | 27.22337 | 21660 ft | 409 kts | 330° |
| 2026-05-01 12:53 | 37.97842 | 27.19447 | 22534 ft | 414 kts | 330° |
| 2026-05-01 12:53 | 38.00487 | 27.17989 | 22963 ft | 417 kts | 330° |
| 2026-05-01 12:53 | 38.03171 | 27.16554 | 23421 ft | 419 kts | 330° |
| 2026-05-01 12:54 | 38.05857 | 27.15085 | 23854 ft | 419 kts | 329° |
| 2026-05-01 12:54 | 38.11176 | 27.12107 | 24740 ft | 420 kts | 329° |
| 2026-05-01 12:54 | 38.13853 | 27.10613 | 25161 ft | 422 kts | 329° |
| 2026-05-01 12:55 | 38.19226 | 27.07627 | 25923 ft | 425 kts | 329° |
| 2026-05-01 12:55 | 38.21940 | 27.06122 | 26268 ft | 426 kts | 329° |
| 2026-05-01 12:55 | 38.24653 | 27.04618 | 26592 ft | 428 kts | 329° |
| 2026-05-01 12:56 | 38.27399 | 27.03094 | 26917 ft | 429 kts | 328° |
| 2026-05-01 12:56 | 38.30132 | 27.01531 | 27254 ft | 426 kts | 325° |
| 2026-05-01 12:56 | 38.32633 | 26.99646 | 27580 ft | 420 kts | 318° |
| 2026-05-01 12:56 | 38.34899 | 26.97315 | 27801 ft | 417 kts | 312° |
| 2026-05-01 12:57 | 38.37057 | 26.94898 | 28135 ft | 418 kts | 312° |
| 2026-05-01 12:57 | 38.41421 | 26.90009 | 28988 ft | 415 kts | 312° |
| 2026-05-01 12:57 | 38.43594 | 26.87591 | 29548 ft | 411 kts | 312° |
| 2026-05-01 12:58 | 38.45726 | 26.85225 | 30093 ft | 407 kts | 311° |
| 2026-05-01 12:58 | 38.47858 | 26.82861 | 30488 ft | 405 kts | 311° |
| 2026-05-01 12:58 | 38.49959 | 26.80529 | 30785 ft | 404 kts | 311° |
| 2026-05-01 12:59 | 38.54202 | 26.75816 | 31420 ft | 402 kts | 311° |
| 2026-05-01 12:59 | 38.56303 | 26.73482 | 31788 ft | 400 kts | 311° |
| 2026-05-01 12:59 | 38.60496 | 26.68815 | 32402 ft | 400 kts | 311° |
| 2026-05-01 13:00 | 38.64709 | 26.64115 | 32869 ft | 402 kts | 311° |
| 2026-05-01 13:00 | 38.66779 | 26.61808 | 33244 ft | 399 kts | 311° |
| 2026-05-01 13:01 | 38.70950 | 26.57148 | 33827 ft | 398 kts | 311° |
| 2026-05-01 13:01 | 38.73034 | 26.54816 | 34106 ft | 398 kts | 311° |
| 2026-05-01 13:01 | 38.77193 | 26.50156 | 34530 ft | 398 kts | 311° |
| 2026-05-01 13:02 | 38.79276 | 26.47821 | 34730 ft | 398 kts | 311° |
| 2026-05-01 13:07 | 39.24524 | 25.99423 | 36123 ft | 406 kts | 313° |
| 2026-05-01 13:07 | 39.26689 | 25.97099 | 36120 ft | 406 kts | 313° |
| 2026-05-01 13:08 | 39.31001 | 25.92439 | 36124 ft | 408 kts | 313° |
| 2026-05-01 13:08 | 39.35313 | 25.87634 | 36131 ft | 409 kts | 312° |
| 2026-05-01 13:09 | 39.39608 | 25.82821 | 36138 ft | 410 kts | 313° |
| 2026-05-01 13:09 | 39.43932 | 25.77979 | 36155 ft | 412 kts | 313° |
| 2026-05-01 13:10 | 39.48276 | 25.73114 | 36149 ft | 414 kts | 313° |
| 2026-05-01 13:10 | 39.52605 | 25.68261 | 36148 ft | 415 kts | 313° |
| 2026-05-01 13:11 | 39.56970 | 25.63359 | 36170 ft | 415 kts | 313° |
| 2026-05-01 13:11 | 39.61340 | 25.58443 | 36165 ft | 416 kts | 313° |
| 2026-05-01 13:12 | 39.65777 | 25.53602 | 36159 ft | 419 kts | 316° |
| 2026-05-01 13:12 | 39.70418 | 25.49087 | 36167 ft | 420 kts | 317° |
| 2026-05-01 13:13 | 39.75119 | 25.44580 | 36173 ft | 420 kts | 317° |
| 2026-05-01 13:13 | 39.79792 | 25.40042 | 36166 ft | 419 kts | 317° |
| 2026-05-01 13:14 | 39.84450 | 25.35474 | 36178 ft | 419 kts | 316° |
| 2026-05-01 13:14 | 39.89095 | 25.30899 | 36220 ft | 419 kts | 317° |
| 2026-05-01 13:15 | 39.93742 | 25.26311 | 36219 ft | 419 kts | 317° |
| 2026-05-01 13:15 | 39.98364 | 25.21742 | 36217 ft | 420 kts | 317° |
| 2026-05-01 13:16 | 40.03011 | 25.17140 | 36208 ft | 420 kts | 317° |
| 2026-05-01 13:16 | 40.07666 | 25.12522 | 36197 ft | 420 kts | 317° |
| 2026-05-01 13:17 | 40.16965 | 25.03273 | 36189 ft | 420 kts | 317° |
| 2026-05-01 13:18 | 40.23837 | 24.96417 | 36211 ft | 420 kts | 317° |
| 2026-05-01 13:18 | 40.28488 | 24.91767 | 36198 ft | 421 kts | 317° |
| 2026-05-01 13:19 | 40.33141 | 24.87105 | 36191 ft | 421 kts | 317° |
| 2026-05-01 13:20 | 40.40122 | 24.80097 | 36191 ft | 422 kts | 317° |
| 2026-05-01 13:20 | 40.44751 | 24.75440 | 36193 ft | 422 kts | 317° |
| 2026-05-01 13:21 | 40.51739 | 24.68393 | 36201 ft | 423 kts | 317° |
| 2026-05-01 13:21 | 40.56408 | 24.63674 | 36202 ft | 424 kts | 317° |
| 2026-05-01 13:22 | 40.61083 | 24.58941 | 36197 ft | 424 kts | 317° |
| 2026-05-01 13:22 | 40.65742 | 24.54215 | 36199 ft | 425 kts | 317° |
| 2026-05-01 13:23 | 40.70419 | 24.49463 | 36196 ft | 425 kts | 317° |
| 2026-05-01 13:23 | 40.75095 | 24.44703 | 36200 ft | 425 kts | 317° |
| 2026-05-01 13:24 | 40.79779 | 24.39926 | 36213 ft | 426 kts | 317° |
| 2026-05-01 13:25 | 40.86791 | 24.32758 | 36199 ft | 427 kts | 318° |
| 2026-05-01 13:25 | 40.91489 | 24.27945 | 36200 ft | 427 kts | 318° |
| 2026-05-01 13:26 | 40.96185 | 24.23124 | 36197 ft | 427 kts | 318° |
| 2026-05-01 13:26 | 41.00844 | 24.18333 | 36198 ft | 428 kts | 317° |
| 2026-05-01 13:27 | 41.05553 | 24.13481 | 36207 ft | 428 kts | 318° |
| 2026-05-01 13:27 | 41.12603 | 24.06201 | 36202 ft | 429 kts | 318° |
| 2026-05-01 13:28 | 41.19594 | 23.98962 | 36201 ft | 430 kts | 318° |
| 2026-05-01 13:29 | 41.28991 | 23.89196 | 36208 ft | 430 kts | 319° |
| 2026-05-01 13:31 | 41.44266 | 23.76860 | 36195 ft | 445 kts | 345° |
| 2026-05-01 13:32 | 41.59780 | 23.74692 | 36209 ft | 449 kts | 350° |
| 2026-05-01 13:33 | 41.75280 | 23.72515 | 36218 ft | 450 kts | 350° |
| 2026-05-01 13:34 | 41.87698 | 23.70735 | 36236 ft | 450 kts | 350° |
| 2026-05-01 13:35 | 41.97020 | 23.69397 | 36250 ft | 449 kts | 350° |
| 2026-05-01 13:36 | 42.06305 | 23.68060 | 36240 ft | 449 kts | 350° |
| 2026-05-01 13:36 | 42.15621 | 23.66714 | 36256 ft | 447 kts | 351° |
| 2026-05-01 13:37 | 42.21788 | 23.65821 | 36269 ft | 447 kts | 351° |
| 2026-05-01 13:37 | 42.27963 | 23.64926 | 36261 ft | 447 kts | 351° |
| 2026-05-01 13:38 | 42.37014 | 23.62450 | 36267 ft | 442 kts | 342° |
| 2026-05-01 13:39 | 42.42950 | 23.60280 | 36264 ft | 442 kts | 342° |
| 2026-05-01 13:39 | 42.48911 | 23.58147 | 36260 ft | 443 kts | 342° |
| 2026-05-01 13:40 | 42.54847 | 23.56071 | 36271 ft | 443 kts | 343° |
| 2026-05-01 13:40 | 42.60822 | 23.53995 | 36268 ft | 444 kts | 343° |
| 2026-05-01 13:41 | 42.66822 | 23.51907 | 36263 ft | 445 kts | 343° |
| 2026-05-01 13:41 | 42.72813 | 23.49817 | 36288 ft | 444 kts | 343° |
| 2026-05-01 13:42 | 42.78796 | 23.47725 | 36278 ft | 445 kts | 343° |
| 2026-05-01 13:42 | 42.84765 | 23.45633 | 36290 ft | 445 kts | 343° |
| 2026-05-01 13:43 | 42.90785 | 23.43519 | 36288 ft | 445 kts | 343° |
| 2026-05-01 13:43 | 42.96734 | 23.41425 | 36294 ft | 445 kts | 344° |
| 2026-05-01 13:44 | 43.02732 | 23.39311 | 36303 ft | 445 kts | 343° |
| 2026-05-01 13:44 | 43.08725 | 23.37193 | 36303 ft | 444 kts | 344° |
| 2026-05-01 13:45 | 43.14664 | 23.35091 | 36310 ft | 443 kts | 344° |
| 2026-05-01 13:45 | 43.20648 | 23.32977 | 36313 ft | 443 kts | 345° |
| 2026-05-01 13:46 | 43.26731 | 23.31950 | 36325 ft | 444 kts | 354° |
| 2026-05-01 13:46 | 43.32904 | 23.31299 | 36322 ft | 443 kts | 353° |
| 2026-05-01 13:47 | 43.39019 | 23.30529 | 36318 ft | 443 kts | 353° |
| 2026-05-01 13:47 | 43.45166 | 23.29740 | 36329 ft | 443 kts | 353° |
| 2026-05-01 13:48 | 43.51291 | 23.28964 | 36316 ft | 443 kts | 353° |
| 2026-05-01 13:48 | 43.57434 | 23.28200 | 36327 ft | 443 kts | 354° |
| 2026-05-01 13:49 | 43.63533 | 23.27451 | 36317 ft | 443 kts | 354° |
| 2026-05-01 13:49 | 43.69708 | 23.26688 | 36316 ft | 443 kts | 354° |
| 2026-05-01 13:50 | 43.75831 | 23.25929 | 36320 ft | 442 kts | 354° |
| 2026-05-01 13:50 | 43.81930 | 23.25103 | 36311 ft | 442 kts | 349° |
| 2026-05-01 13:51 | 43.87734 | 23.22599 | 36314 ft | 440 kts | 337° |
| 2026-05-01 13:51 | 43.93369 | 23.19246 | 36306 ft | 440 kts | 336° |
| 2026-05-01 13:52 | 43.98992 | 23.15886 | 36306 ft | 441 kts | 337° |
| 2026-05-01 13:52 | 44.04615 | 23.12564 | 36291 ft | 440 kts | 338° |
| 2026-05-01 13:53 | 44.10260 | 23.09247 | 36288 ft | 439 kts | 338° |
| 2026-05-01 13:53 | 44.18695 | 23.04289 | 36294 ft | 439 kts | 338° |
| 2026-05-01 13:54 | 44.24305 | 23.00982 | 36291 ft | 438 kts | 338° |
| 2026-05-01 13:54 | 44.29797 | 22.97737 | 36281 ft | 438 kts | 338° |
| 2026-05-01 13:55 | 44.35431 | 22.94401 | 36274 ft | 438 kts | 338° |
| 2026-05-01 13:55 | 44.41032 | 22.91078 | 36277 ft | 437 kts | 338° |
| 2026-05-01 13:56 | 44.46596 | 22.87770 | 36278 ft | 437 kts | 338° |
| 2026-05-01 13:56 | 44.52193 | 22.84435 | 36271 ft | 437 kts | 338° |
| 2026-05-01 13:57 | 44.56836 | 22.81663 | 36274 ft | 437 kts | 338° |
| 2026-05-01 13:57 | 44.63360 | 22.77761 | 36268 ft | 437 kts | 338° |
| 2026-05-01 13:58 | 44.68975 | 22.74394 | 36270 ft | 437 kts | 338° |
| 2026-05-01 13:58 | 44.74579 | 22.71027 | 36265 ft | 438 kts | 338° |
| 2026-05-01 13:59 | 44.80152 | 22.67672 | 36263 ft | 438 kts | 338° |
| 2026-05-01 13:59 | 44.85751 | 22.64293 | 36262 ft | 438 kts | 338° |
| 2026-05-01 14:00 | 44.91341 | 22.60913 | 36266 ft | 438 kts | 339° |
| 2026-05-01 14:00 | 44.96933 | 22.57524 | 36255 ft | 438 kts | 339° |
| 2026-05-01 14:01 | 45.02484 | 22.54154 | 36257 ft | 437 kts | 338° |
| 2026-05-01 14:01 | 45.08066 | 22.50753 | 36260 ft | 436 kts | 338° |
| 2026-05-01 14:02 | 45.13623 | 22.47367 | 36265 ft | 436 kts | 339° |
| 2026-05-01 14:02 | 45.19200 | 22.43964 | 36252 ft | 436 kts | 339° |
| 2026-05-01 14:03 | 45.24742 | 22.40568 | 36252 ft | 435 kts | 339° |
| 2026-05-01 14:03 | 45.30293 | 22.37159 | 36268 ft | 435 kts | 339° |
| 2026-05-01 14:04 | 45.35855 | 22.33738 | 36259 ft | 435 kts | 339° |
| 2026-05-01 14:04 | 45.40463 | 22.30898 | 36269 ft | 435 kts | 339° |
| 2026-05-01 14:05 | 45.46925 | 22.26908 | 36247 ft | 434 kts | 340° |
| 2026-05-01 14:05 | 45.52476 | 22.23472 | 36253 ft | 433 kts | 340° |
| 2026-05-01 14:06 | 45.57974 | 22.20060 | 36271 ft | 432 kts | 340° |
| 2026-05-01 14:06 | 45.63490 | 22.16630 | 36278 ft | 431 kts | 340° |
| 2026-05-01 14:07 | 45.68977 | 22.13212 | 36264 ft | 431 kts | 340° |
| 2026-05-01 14:08 | 45.77212 | 22.08068 | 36270 ft | 431 kts | 340° |
| 2026-05-01 14:08 | 45.82706 | 22.04627 | 36267 ft | 430 kts | 340° |
| 2026-05-01 14:09 | 45.88184 | 22.01187 | 36273 ft | 430 kts | 341° |
| 2026-05-01 14:09 | 45.93547 | 21.97814 | 36268 ft | 430 kts | 341° |
| 2026-05-01 14:10 | 45.99027 | 21.94359 | 36267 ft | 430 kts | 341° |
| 2026-05-01 14:10 | 46.04486 | 21.90910 | 36248 ft | 429 kts | 341° |
| 2026-05-01 14:11 | 46.09908 | 21.87477 | 36262 ft | 428 kts | 342° |
| 2026-05-01 14:11 | 46.18039 | 21.82313 | 36271 ft | 426 kts | 342° |
| 2026-05-01 14:12 | 46.22550 | 21.79441 | 36279 ft | 425 kts | 342° |
| 2026-05-01 14:12 | 46.27980 | 21.75979 | 36278 ft | 425 kts | 342° |
| 2026-05-01 14:13 | 46.33363 | 21.72539 | 36250 ft | 425 kts | 342° |
| 2026-05-01 14:13 | 46.39649 | 21.68511 | 36269 ft | 424 kts | 342° |
| 2026-05-01 14:14 | 46.44162 | 21.65613 | 36279 ft | 423 kts | 342° |
| 2026-05-01 14:14 | 46.49515 | 21.62169 | 36281 ft | 422 kts | 342° |
| 2026-05-01 14:15 | 46.54856 | 21.58726 | 36288 ft | 422 kts | 342° |
| 2026-05-01 14:15 | 46.61093 | 21.54696 | 36288 ft | 421 kts | 343° |
| 2026-05-01 14:16 | 46.65568 | 21.51798 | 36278 ft | 420 kts | 343° |
| 2026-05-01 14:16 | 46.71061 | 21.49395 | 36293 ft | 406 kts | 358° |
| 2026-05-01 14:17 | 46.76634 | 21.48766 | 36291 ft | 403 kts | 1° |
| 2026-05-01 14:17 | 46.82226 | 21.48208 | 36294 ft | 404 kts | 1° |
| 2026-05-01 14:18 | 46.87814 | 21.47624 | 36294 ft | 405 kts | 1° |
| 2026-05-01 14:18 | 46.93457 | 21.47014 | 36292 ft | 405 kts | 1° |
| 2026-05-01 14:19 | 46.99041 | 21.46403 | 36295 ft | 406 kts | 1° |
| 2026-05-01 14:19 | 47.04702 | 21.45782 | 36304 ft | 407 kts | 1° |
| 2026-05-01 14:20 | 47.13124 | 21.44854 | 36292 ft | 406 kts | 1° |
| 2026-05-01 14:21 | 47.18759 | 21.44231 | 36301 ft | 406 kts | 1° |
| 2026-05-01 14:21 | 47.24389 | 21.43608 | 36299 ft | 405 kts | 1° |
| 2026-05-01 14:22 | 47.32794 | 21.42677 | 36296 ft | 405 kts | 1° |
| 2026-05-01 14:22 | 47.38377 | 21.42056 | 36293 ft | 404 kts | 1° |
| 2026-05-01 14:23 | 47.43978 | 21.41432 | 36299 ft | 404 kts | 1° |
| 2026-05-01 14:23 | 47.49587 | 21.40806 | 36301 ft | 403 kts | 1° |
| 2026-05-01 14:24 | 47.55168 | 21.40182 | 36297 ft | 403 kts | 1° |
| 2026-05-01 14:24 | 47.60727 | 21.39559 | 36266 ft | 402 kts | 1° |
| 2026-05-01 14:25 | 47.66286 | 21.38935 | 36288 ft | 402 kts | 1° |
| 2026-05-01 14:25 | 47.71875 | 21.38306 | 36296 ft | 401 kts | 1° |
| 2026-05-01 14:26 | 47.80207 | 21.37366 | 36295 ft | 401 kts | 1° |
| 2026-05-01 14:27 | 47.85766 | 21.36737 | 36292 ft | 402 kts | 1° |
| 2026-05-01 14:27 | 47.91342 | 21.36105 | 36289 ft | 402 kts | 1° |
| 2026-05-01 14:28 | 47.99715 | 21.35153 | 36289 ft | 402 kts | 1° |
| 2026-05-01 14:28 | 48.05253 | 21.34521 | 36288 ft | 403 kts | 1° |
| 2026-05-01 14:29 | 48.10843 | 21.33882 | 36286 ft | 403 kts | 1° |
| 2026-05-01 14:30 | 48.22029 | 21.32599 | 36289 ft | 403 kts | 1° |
| 2026-05-01 14:31 | 48.30387 | 21.31638 | 36284 ft | 404 kts | 1° |
| 2026-05-01 14:31 | 48.35986 | 21.30991 | 36285 ft | 403 kts | 1° |
| 2026-05-01 14:32 | 48.41574 | 21.30344 | 36280 ft | 402 kts | 1° |
| 2026-05-01 14:32 | 48.47136 | 21.29700 | 36293 ft | 400 kts | 1° |
| 2026-05-01 14:33 | 48.52653 | 21.29000 | 36284 ft | 402 kts | 358° |
| 2026-05-01 14:33 | 48.58160 | 21.27260 | 36291 ft | 405 kts | 353° |
| 2026-05-01 14:34 | 48.63646 | 21.25300 | 36284 ft | 404 kts | 353° |
| 2026-05-01 14:34 | 48.69121 | 21.23378 | 36285 ft | 404 kts | 353° |
| 2026-05-01 14:35 | 48.74566 | 21.21498 | 36297 ft | 404 kts | 353° |
| 2026-05-01 14:35 | 48.80053 | 21.19613 | 36290 ft | 404 kts | 353° |
| 2026-05-01 14:36 | 48.85546 | 21.17724 | 36290 ft | 405 kts | 353° |
| 2026-05-01 14:36 | 48.91050 | 21.15826 | 36293 ft | 405 kts | 353° |
| 2026-05-01 14:37 | 48.96555 | 21.13922 | 36288 ft | 406 kts | 353° |
| 2026-05-01 14:37 | 49.02031 | 21.12027 | 35871 ft | 412 kts | 353° |
| 2026-05-01 14:37 | 49.04816 | 21.11061 | 35350 ft | 410 kts | 353° |
| 2026-05-01 14:38 | 49.07590 | 21.10094 | 34789 ft | 408 kts | 353° |
| 2026-05-01 14:38 | 49.10364 | 21.09128 | 34152 ft | 408 kts | 353° |
| 2026-05-01 14:38 | 49.13113 | 21.08168 | 33663 ft | 403 kts | 354° |
| 2026-05-01 14:38 | 49.15830 | 21.07218 | 33184 ft | 398 kts | 354° |
| 2026-05-01 14:39 | 49.18509 | 21.06281 | 32728 ft | 392 kts | 354° |
| 2026-05-01 14:39 | 49.21153 | 21.05356 | 32301 ft | 387 kts | 355° |
| 2026-05-01 14:39 | 49.23734 | 21.04456 | 31851 ft | 384 kts | 355° |
| 2026-05-01 14:39 | 49.26322 | 21.03550 | 31400 ft | 380 kts | 355° |
| 2026-05-01 14:40 | 49.28895 | 21.02649 | 30873 ft | 380 kts | 355° |
| 2026-05-01 14:40 | 49.31454 | 21.01505 | 30310 ft | 388 kts | 347° |
| 2026-05-01 14:40 | 49.33833 | 20.99769 | 29761 ft | 394 kts | 340° |
| 2026-05-01 14:40 | 49.36158 | 20.97495 | 29295 ft | 400 kts | 332° |
| 2026-05-01 14:41 | 49.38274 | 20.94698 | 28778 ft | 402 kts | 327° |
| 2026-05-01 14:41 | 49.40340 | 20.91817 | 28206 ft | 401 kts | 327° |
| 2026-05-01 14:41 | 49.42385 | 20.88933 | 27696 ft | 398 kts | 327° |
| 2026-05-01 14:41 | 49.44389 | 20.86104 | 27236 ft | 394 kts | 327° |
| 2026-05-01 14:42 | 49.46401 | 20.83270 | 26749 ft | 390 kts | 327° |
| 2026-05-01 14:42 | 49.48399 | 20.80469 | 26287 ft | 388 kts | 327° |
| 2026-05-01 14:42 | 49.50386 | 20.77685 | 25829 ft | 386 kts | 327° |
| 2026-05-01 14:42 | 49.52363 | 20.74919 | 25389 ft | 383 kts | 327° |
| 2026-05-01 14:43 | 49.54326 | 20.72172 | 24974 ft | 380 kts | 327° |
| 2026-05-01 14:43 | 49.56277 | 20.69441 | 24536 ft | 377 kts | 327° |
| 2026-05-01 14:43 | 49.58213 | 20.66728 | 24104 ft | 375 kts | 327° |
| 2026-05-01 14:43 | 49.60138 | 20.64030 | 23611 ft | 373 kts | 327° |
| 2026-05-01 14:44 | 49.62052 | 20.61344 | 23088 ft | 372 kts | 326° |
| 2026-05-01 14:44 | 49.65816 | 20.56050 | 22200 ft | 365 kts | 326° |
| 2026-05-01 14:44 | 49.67687 | 20.53414 | 21764 ft | 363 kts | 326° |
| 2026-05-01 14:45 | 49.69541 | 20.50799 | 21318 ft | 360 kts | 326° |
| 2026-05-01 14:45 | 49.73198 | 20.45630 | 20263 ft | 351 kts | 326° |
| 2026-05-01 14:45 | 49.74989 | 20.43094 | 19583 ft | 348 kts | 326° |
| 2026-05-01 14:46 | 49.76770 | 20.40572 | 18923 ft | 345 kts | 325° |
| 2026-05-01 14:46 | 49.80241 | 20.35647 | 17787 ft | 333 kts | 325° |
| 2026-05-01 14:46 | 49.81920 | 20.33255 | 17361 ft | 323 kts | 325° |
| 2026-05-01 14:47 | 49.83208 | 20.31420 | 17037 ft | 316 kts | 325° |